Time;durP1;ratioP1;P1;durP2;ratioP2;P2;SDS_P1;SDS_P2;PMS_P1;PMS_P2;Temp;Humidity;BMP_temperature;BMP_pressure;BME280_temperature;BME280_humidity;BME280_pressure;Samples;Min_cycle;Max_cycle;Signal;HPM_P1;HPM_P2
2021/08/08 00:02:23;;;;;;;2.63;2.10;;;18.30;92.50;;;;;;5036470;28;20355;-83
2021/08/08 00:04:49;;;;;;;3.47;2.40;;;18.30;92.00;;;;;;5054088;28;20021;-83
2021/08/08 00:07:16;;;;;;;3.22;2.30;;;18.30;92.00;;;;;;5054144;28;20078;-83
2021/08/08 00:09:42;;;;;;;2.58;2.20;;;18.20;91.80;;;;;;5036235;28;20121;-83
2021/08/08 00:12:09;;;;;;;2.50;2.30;;;18.20;91.80;;;;;;5053802;28;20021;-84
2021/08/08 00:14:35;;;;;;;3.03;2.13;;;18.20;92.00;;;;;;5053652;28;20096;-83
2021/08/08 00:17:01;;;;;;;2.42;1.83;;;18.20;92.10;;;;;;5053937;28;20112;-85
2021/08/08 00:19:26;;;;;;;2.65;2.10;;;18.20;92.00;;;;;;5035635;28;20078;-83
2021/08/08 00:21:52;;;;;;;2.25;2.05;;;18.10;91.90;;;;;;5054040;28;20499;-84
2021/08/08 00:24:18;;;;;;;2.30;2.10;;;18.10;92.00;;;;;;5054216;28;20376;-84
2021/08/08 00:26:43;;;;;;;2.30;2.10;;;18.00;91.90;;;;;;5036272;28;20025;-84
2021/08/08 00:29:09;;;;;;;2.42;2.17;;;18.00;91.90;;;;;;5035912;28;20028;-85
2021/08/08 00:31:35;;;;;;;2.75;1.80;;;18.00;92.00;;;;;;5053729;28;20021;-82
2021/08/08 00:34:00;;;;;;;2.50;2.17;;;17.90;92.10;;;;;;5035810;28;20067;-82
2021/08/08 00:36:26;;;;;;;3.80;1.90;;;17.90;92.30;;;;;;5053830;28;20032;-83
2021/08/08 00:38:52;;;;;;;1.98;1.77;;;17.90;92.70;;;;;;5053898;28;20033;-83
2021/08/08 00:41:17;;;;;;;2.20;2.00;;;18.00;92.80;;;;;;5053726;28;20447;-83
2021/08/08 00:43:43;;;;;;;2.80;2.20;;;18.00;92.60;;;;;;5053621;28;20025;-84
2021/08/08 00:46:09;;;;;;;2.17;1.98;;;17.90;92.30;;;;;;5035728;28;20446;-83
2021/08/08 00:48:35;;;;;;;3.08;2.10;;;17.90;92.30;;;;;;5053306;28;20036;-83
2021/08/08 00:51:00;;;;;;;2.45;2.15;;;17.90;92.20;;;;;;5035722;28;20067;-83
2021/08/08 00:53:27;;;;;;;2.85;2.00;;;17.80;92.30;;;;;;5035643;28;20029;-83
2021/08/08 00:55:53;;;;;;;2.17;1.98;;;17.80;92.70;;;;;;5053603;28;20108;-83
2021/08/08 00:58:20;;;;;;;2.05;1.88;;;17.90;92.70;;;;;;5035832;28;20115;-84
2021/08/08 01:00:47;;;;;;;2.67;2.10;;;17.90;93.00;;;;;;5053997;28;20020;-82
2021/08/08 01:03:14;;;;;;;2.20;2.00;;;17.90;92.70;;;;;;5038885;28;20028;-83
2021/08/08 01:05:47;;;;;;;2.15;1.90;;;17.90;92.70;;;;;;5056691;28;20029;-83
2021/08/08 01:08:23;;;;;;;2.58;2.20;;;17.90;91.50;;;;;;5038002;28;20032;-83
2021/08/08 01:10:49;;;;;;;2.40;2.20;;;17.90;91.50;;;;;;5054885;28;20064;-82
2021/08/08 01:13:16;;;;;;;2.50;2.28;;;17.80;92.10;;;;;;5036209;28;20467;-83
2021/08/08 01:15:42;;;;;;;2.55;2.22;;;17.80;92.10;;;;;;5053754;28;20024;-83
2021/08/08 01:18:12;;;;;;;2.95;2.15;;;17.80;92.20;;;;;;5053220;28;20182;-84
2021/08/08 01:20:38;;;;;;;3.35;2.22;;;17.80;92.40;;;;;;5035527;28;20036;-83
2021/08/08 01:23:08;;;;;;;2.65;2.33;;;17.80;92.40;;;;;;5053375;28;20025;-84
2021/08/08 01:25:34;;;;;;;2.05;1.92;;;17.70;92.20;;;;;;5035296;28;20029;-83
2021/08/08 01:28:01;;;;;;;2.35;2.10;;;17.70;92.40;;;;;;5035492;28;20497;-84
2021/08/08 01:30:27;;;;;;;4.30;2.10;;;17.70;92.40;;;;;;5053464;28;20029;-84
2021/08/08 01:33:03;;;;;;;2.85;1.90;;;17.70;92.50;;;;;;5053504;28;20057;-83
2021/08/08 01:35:29;;;;;;;2.40;2.20;;;17.70;91.80;;;;;;5053338;28;20033;-83
2021/08/08 01:37:55;;;;;;;2.55;2.15;;;17.80;92.50;;;;;;5056034;28;20445;-83
2021/08/08 01:40:33;;;;;;;2.10;1.90;;;17.80;92.50;;;;;;5056370;28;20037;-82
2021/08/08 01:43:03;;;;;;;2.40;2.03;;;17.80;91.50;;;;;;5056840;28;20036;-82
2021/08/08 01:45:29;;;;;;;2.38;2.17;;;17.80;91.70;;;;;;5056687;28;20025;-82
2021/08/08 01:47:59;;;;;;;2.40;2.20;;;17.80;91.60;;;;;;5058149;28;20036;-83
2021/08/08 01:50:31;;;;;;;2.45;2.10;;;17.80;91.50;;;;;;5038804;28;20096;-82
2021/08/08 01:53:00;;;;;;;2.30;2.10;;;17.80;91.60;;;;;;5056546;28;20119;-84
2021/08/08 01:55:27;;;;;;;2.97;2.20;;;17.80;91.30;;;;;;5038852;28;20025;-84
2021/08/08 01:57:53;;;;;;;3.17;2.05;;;17.80;91.10;;;;;;5056389;28;20486;-84
2021/08/08 02:00:20;;;;;;;2.45;2.10;;;17.80;90.80;;;;;;5038444;28;20033;-84
2021/08/08 02:02:56;;;;;;;2.42;1.90;;;17.80;90.70;;;;;;5056258;28;20082;-84
2021/08/08 02:05:25;;;;;;;2.33;2.05;;;17.80;90.30;;;;;;5056195;28;20028;-84
2021/08/08 02:07:50;;;;;;;2.10;1.90;;;17.80;90.60;;;;;;5038846;28;20056;-84
2021/08/08 02:10:17;;;;;;;2.67;2.38;;;17.80;90.50;;;;;;5056191;28;20368;-84
2021/08/08 02:12:42;;;;;;;2.80;2.03;;;17.80;90.30;;;;;;5038175;28;20053;-84
2021/08/08 02:15:09;;;;;;;4.75;2.10;;;17.70;90.30;;;;;;5038399;28;20371;-84
2021/08/08 02:17:36;;;;;;;2.95;2.35;;;17.70;90.20;;;;;;5038042;28;20112;-84
2021/08/08 02:20:03;;;;;;;2.80;2.30;;;17.70;90.20;;;;;;5038053;28;20471;-84
2021/08/08 02:22:29;;;;;;;2.47;1.92;;;17.60;90.20;;;;;;5055964;28;20021;-83
2021/08/08 02:24:54;;;;;;;2.78;2.03;;;17.70;90.30;;;;;;5056170;28;20021;-82
2021/08/08 02:27:20;;;;;;;2.03;1.83;;;17.70;90.60;;;;;;5055919;28;20025;-83
2021/08/08 02:29:46;;;;;;;2.42;1.83;;;17.70;90.60;;;;;;5056044;28;20052;-83
2021/08/08 02:32:11;;;;;;;2.38;2.10;;;17.70;90.50;;;;;;5055648;28;20100;-83
2021/08/08 02:34:37;;;;;;;2.28;2.08;;;17.70;90.70;;;;;;5037893;28;20025;-82
2021/08/08 02:37:03;;;;;;;2.13;1.92;;;17.70;90.50;;;;;;5055704;28;20106;-83
2021/08/08 02:39:28;;;;;;;2.20;2.00;;;17.70;90.30;;;;;;5055820;28;20033;-83
2021/08/08 02:41:54;;;;;;;2.13;1.90;;;17.70;90.20;;;;;;5037704;28;20502;-83
2021/08/08 02:44:20;;;;;;;2.42;2.10;;;17.70;90.30;;;;;;5055691;28;20473;-83
2021/08/08 02:46:45;;;;;;;2.80;2.20;;;17.70;90.30;;;;;;5055159;28;20395;-83
2021/08/08 02:49:11;;;;;;;2.50;2.13;;;17.60;90.20;;;;;;5036592;28;20025;-83
2021/08/08 02:51:36;;;;;;;2.33;2.00;;;17.60;90.30;;;;;;5055462;28;20049;-83
2021/08/08 02:54:02;;;;;;;2.47;2.13;;;17.60;90.20;;;;;;5055462;28;20060;-83
2021/08/08 02:56:28;;;;;;;2.33;2.13;;;17.60;90.20;;;;;;5037717;28;20372;-83
2021/08/08 02:58:53;;;;;;;3.35;2.13;;;17.60;90.20;;;;;;5055346;28;20099;-83
2021/08/08 03:01:19;;;;;;;3.05;2.28;;;17.50;90.20;;;;;;5055201;28;20029;-83
2021/08/08 03:03:45;;;;;;;2.75;2.20;;;17.50;90.30;;;;;;5037963;28;20083;-83
2021/08/08 03:06:12;;;;;;;2.30;2.10;;;17.50;90.40;;;;;;5037413;28;20048;-83
2021/08/08 03:08:40;;;;;;;2.30;2.10;;;17.50;90.40;;;;;;5055349;28;20028;-83
2021/08/08 03:11:05;;;;;;;2.60;2.40;;;17.50;90.50;;;;;;5055138;28;20050;-83
2021/08/08 03:13:31;;;;;;;3.00;2.42;;;17.50;90.80;;;;;;5055278;28;20045;-83
2021/08/08 03:15:57;;;;;;;2.83;2.05;;;17.60;90.50;;;;;;5054888;28;20071;-84
2021/08/08 03:18:22;;;;;;;3.15;2.17;;;17.60;90.40;;;;;;5054791;28;20025;-83
2021/08/08 03:20:48;;;;;;;2.28;2.08;;;17.60;90.30;;;;;;5055160;28;20028;-83
2021/08/08 03:23:17;;;;;;;2.28;1.90;;;17.60;90.40;;;;;;5036866;28;20486;-84
2021/08/08 03:25:43;;;;;;;2.63;2.22;;;17.60;90.20;;;;;;5054718;28;20029;-84
2021/08/08 03:28:08;;;;;;;2.70;2.17;;;17.70;90.20;;;;;;5054773;28;20017;-84
2021/08/08 03:30:35;;;;;;;2.53;2.10;;;17.70;90.20;;;;;;5036512;28;20467;-83
2021/08/08 03:33:01;;;;;;;2.15;1.95;;;17.70;90.20;;;;;;5054601;28;20353;-84
2021/08/08 03:35:27;;;;;;;2.17;1.98;;;17.70;90.20;;;;;;5054627;28;20048;-84
2021/08/08 03:37:53;;;;;;;2.20;2.00;;;17.70;90.20;;;;;;5054878;28;20033;-84
2021/08/08 03:40:18;;;;;;;3.05;2.40;;;17.80;90.20;;;;;;5054660;28;20033;-83
2021/08/08 03:42:44;;;;;;;3.40;2.40;;;17.80;90.50;;;;;;5036599;28;20032;-83
2021/08/08 03:45:10;;;;;;;2.75;2.08;;;17.80;90.30;;;;;;5036259;28;20025;-83
2021/08/08 03:47:36;;;;;;;2.20;2.00;;;17.90;90.30;;;;;;5054476;28;20092;-83
2021/08/08 03:50:01;;;;;;;3.72;1.92;;;17.90;90.20;;;;;;5054825;28;20021;-81
2021/08/08 03:52:27;;;;;;;3.38;2.10;;;18.00;90.20;;;;;;5036574;28;20021;-83
2021/08/08 03:54:53;;;;;;;3.20;2.03;;;18.00;89.90;;;;;;5036514;28;20033;-83
2021/08/08 03:57:18;;;;;;;2.33;2.10;;;18.10;89.60;;;;;;5036445;28;20060;-82
2021/08/08 03:59:44;;;;;;;3.25;2.28;;;18.10;89.60;;;;;;5036120;28;20065;-82
2021/08/08 04:02:10;;;;;;;2.63;2.08;;;18.10;89.60;;;;;;5036851;28;20435;-82
2021/08/08 04:04:35;;;;;;;3.50;2.30;;;18.10;89.70;;;;;;5054150;28;20383;-82
2021/08/08 04:07:01;;;;;;;2.78;2.20;;;18.20;89.70;;;;;;5036459;28;20442;-82
2021/08/08 04:09:27;;;;;;;2.60;2.30;;;18.20;89.40;;;;;;5036599;28;20035;-83
2021/08/08 04:11:52;;;;;;;3.42;2.38;;;18.30;88.90;;;;;;5036120;28;20076;-82
2021/08/08 04:14:18;;;;;;;2.40;2.10;;;18.30;88.90;;;;;;5036044;28;20052;-82
2021/08/08 04:16:43;;;;;;;2.80;2.13;;;18.30;88.80;;;;;;5035983;28;20083;-82
2021/08/08 04:19:09;;;;;;;3.58;2.63;;;18.30;89.10;;;;;;5036182;28;20037;-82
2021/08/08 04:21:35;;;;;;;2.45;2.17;;;18.40;88.60;;;;;;5054172;28;20029;-82
2021/08/08 04:24:00;;;;;;;2.33;2.10;;;18.40;88.50;;;;;;5054266;28;20451;-81
2021/08/08 04:26:26;;;;;;;2.95;2.30;;;18.40;88.70;;;;;;5053712;28;20080;-82
2021/08/08 04:28:52;;;;;;;2.58;2.10;;;18.50;88.30;;;;;;5035805;28;20029;-82
2021/08/08 04:31:17;;;;;;;2.65;2.10;;;18.50;87.90;;;;;;5036168;28;20072;-82
2021/08/08 04:33:43;;;;;;;3.33;2.30;;;18.60;88.00;;;;;;5053913;28;20025;-82
2021/08/08 04:36:08;;;;;;;4.30;2.30;;;18.60;87.80;;;;;;5053536;28;20036;-82
2021/08/08 04:38:34;;;;;;;2.95;2.38;;;18.70;87.40;;;;;;5041188;28;20033;-81
2021/08/08 04:41:00;;;;;;;2.60;2.22;;;18.70;87.10;;;;;;5067554;28;20112;-82
2021/08/08 04:43:26;;;;;;;2.30;2.10;;;18.80;86.90;;;;;;5053964;28;20047;-82
2021/08/08 04:45:52;;;;;;;2.30;2.10;;;18.80;86.70;;;;;;5053721;28;20463;-82
2021/08/08 04:48:17;;;;;;;3.88;2.63;;;18.90;86.40;;;;;;5053735;28;20021;-82
2021/08/08 04:50:43;;;;;;;4.35;2.60;;;18.90;86.10;;;;;;5053543;28;20100;-82
2021/08/08 04:53:16;;;;;;;3.85;2.60;;;18.90;85.80;;;;;;5035994;28;20029;-82
2021/08/08 04:55:44;;;;;;;3.00;2.33;;;18.90;85.50;;;;;;5035520;28;20383;-83
2021/08/08 04:58:13;;;;;;;2.97;2.53;;;19.00;85.50;;;;;;5036082;28;20471;-82
2021/08/08 05:00:39;;;;;;;3.85;2.58;;;19.00;85.20;;;;;;5053567;28;20040;-83
2021/08/08 05:03:05;;;;;;;3.97;2.83;;;19.10;85.00;;;;;;5053394;28;20037;-82
2021/08/08 05:05:30;;;;;;;3.20;2.70;;;19.10;85.00;;;;;;5053345;28;20490;-82
2021/08/08 05:07:59;;;;;;;2.50;2.30;;;19.20;84.70;;;;;;5034822;28;20029;-82
2021/08/08 05:10:25;;;;;;;2.88;2.50;;;19.20;84.60;;;;;;5035534;28;20199;-82
2021/08/08 05:12:55;;;;;;;2.60;2.40;;;19.30;84.40;;;;;;5038311;28;20183;-81
2021/08/08 05:15:22;;;;;;;3.88;2.42;;;19.30;84.20;;;;;;5057381;28;20032;-81
2021/08/08 05:17:47;;;;;;;2.53;2.30;;;19.30;83.80;;;;;;5056911;28;20021;-81
2021/08/08 05:20:14;;;;;;;4.45;2.40;;;19.30;83.70;;;;;;5057007;28;20055;-81
2021/08/08 05:22:40;;;;;;;5.00;2.63;;;19.40;83.40;;;;;;5039120;28;20021;-82
2021/08/08 05:25:10;;;;;;;2.47;2.10;;;19.40;83.20;;;;;;5056796;28;20048;-82
2021/08/08 05:27:36;;;;;;;3.92;2.70;;;19.50;83.20;;;;;;5039067;28;20498;-82
2021/08/08 05:30:04;;;;;;;2.75;2.22;;;19.50;83.40;;;;;;5039024;28;20055;-82
2021/08/08 05:32:29;;;;;;;2.47;2.05;;;19.60;83.30;;;;;;5038732;28;20418;-81
2021/08/08 05:34:55;;;;;;;3.40;2.50;;;19.70;83.10;;;;;;5038957;28;20070;-82
2021/08/08 05:37:22;;;;;;;3.47;2.60;;;19.80;82.70;;;;;;5056865;28;20455;-81
2021/08/08 05:39:48;;;;;;;2.20;1.98;;;19.70;82.10;;;;;;5056409;28;20075;-82
2021/08/08 05:42:16;;;;;;;2.75;2.40;;;19.80;81.90;;;;;;5038884;28;20039;-83
2021/08/08 05:44:41;;;;;;;2.70;2.47;;;19.80;81.60;;;;;;5056739;28;20021;-81
2021/08/08 05:47:07;;;;;;;2.45;2.20;;;19.90;81.40;;;;;;5038988;28;20380;-82
2021/08/08 05:49:34;;;;;;;4.18;2.88;;;19.90;81.30;;;;;;5056812;28;20421;-82
2021/08/08 05:52:01;;;;;;;2.38;2.17;;;19.90;80.50;;;;;;5056501;28;20078;-81
2021/08/08 05:54:28;;;;;;;3.33;2.65;;;19.90;80.60;;;;;;5056721;28;20029;-82
2021/08/08 05:56:53;;;;;;;2.50;2.30;;;20.00;80.30;;;;;;5057071;28;20078;-82
2021/08/08 05:59:19;;;;;;;3.90;2.55;;;20.00;80.40;;;;;;5038131;28;20132;-82
2021/08/08 06:01:45;;;;;;;2.85;2.58;;;20.10;80.00;;;;;;5056204;28;20031;-82
2021/08/08 06:04:10;;;;;;;2.72;2.30;;;20.10;79.70;;;;;;5057146;28;20021;-81
2021/08/08 06:06:36;;;;;;;2.47;2.20;;;20.10;79.80;;;;;;5056333;28;20491;-82
2021/08/08 06:09:05;;;;;;;2.10;1.90;;;20.20;79.90;;;;;;5055946;28;20027;-83
2021/08/08 06:11:31;;;;;;;3.17;2.70;;;20.30;79.40;;;;;;5038766;28;20075;-83
2021/08/08 06:13:57;;;;;;;2.88;2.50;;;20.30;79.30;;;;;;5055548;28;20048;-83
2021/08/08 06:16:23;;;;;;;3.05;2.30;;;20.40;79.00;;;;;;5056099;28;20159;-83
2021/08/08 06:18:48;;;;;;;2.38;2.17;;;20.40;79.00;;;;;;5055526;28;20087;-83
2021/08/08 06:21:14;;;;;;;2.50;2.30;;;20.50;78.60;;;;;;5055825;28;20039;-84
2021/08/08 06:23:40;;;;;;;2.50;2.30;;;20.50;78.40;;;;;;5038278;28;20478;-83
2021/08/08 06:26:06;;;;;;;2.90;2.60;;;20.60;78.10;;;;;;5056076;28;20421;-83
2021/08/08 06:28:31;;;;;;;2.60;2.30;;;20.70;77.90;;;;;;5056032;28;20021;-83
2021/08/08 06:30:57;;;;;;;2.53;2.33;;;20.70;77.80;;;;;;5038022;28;20485;-82
2021/08/08 06:33:23;;;;;;;2.83;2.42;;;20.80;77.80;;;;;;5056089;28;20467;-82
2021/08/08 06:35:51;;;;;;;2.20;2.00;;;20.90;77.60;;;;;;5055715;28;20029;-83
2021/08/08 06:38:17;;;;;;;2.70;2.13;;;21.00;77.50;;;;;;5055841;28;20044;-82
2021/08/08 06:40:42;;;;;;;2.95;2.47;;;21.00;77.50;;;;;;5055420;28;20041;-82
2021/08/08 06:43:08;;;;;;;3.97;2.83;;;21.20;77.60;;;;;;5055443;28;20032;-82
2021/08/08 06:45:34;;;;;;;2.60;2.40;;;21.20;77.20;;;;;;5037904;28;20032;-82
2021/08/08 06:48:03;;;;;;;2.33;2.13;;;21.30;77.30;;;;;;5037524;28;20386;-82
2021/08/08 06:50:30;;;;;;;2.40;2.20;;;21.40;76.60;;;;;;5037578;28;20071;-83
2021/08/08 06:52:56;;;;;;;2.45;2.22;;;21.50;76.40;;;;;;5037491;28;20025;-82
2021/08/08 06:55:22;;;;;;;2.22;2.03;;;21.60;76.10;;;;;;5037423;28;20032;-82
2021/08/08 06:57:48;;;;;;;2.35;1.92;;;21.70;76.30;;;;;;5037287;28;20024;-81
2021/08/08 07:00:15;;;;;;;2.42;2.22;;;21.80;75.90;;;;;;5055131;28;20113;-81
2021/08/08 07:02:41;;;;;;;3.33;2.15;;;21.90;76.30;;;;;;5037261;28;20380;-81
2021/08/08 07:05:07;;;;;;;2.03;1.80;;;22.00;75.30;;;;;;5037543;28;20116;-81
2021/08/08 07:07:33;;;;;;;2.17;1.98;;;22.10;74.80;;;;;;5037054;28;20035;-82
2021/08/08 07:09:59;;;;;;;2.40;2.20;;;22.20;74.50;;;;;;5037495;28;20071;-82
2021/08/08 07:12:25;;;;;;;2.17;1.90;;;22.30;73.70;;;;;;5055142;28;20053;-83
2021/08/08 07:14:51;;;;;;;2.13;1.98;;;22.30;73.50;;;;;;5055013;28;20105;-83
2021/08/08 07:17:16;;;;;;;2.15;1.95;;;22.40;73.50;;;;;;5036789;28;20036;-82
2021/08/08 07:19:42;;;;;;;2.03;1.85;;;22.50;73.40;;;;;;5054497;28;20170;-82
2021/08/08 07:22:09;;;;;;;2.53;2.03;;;22.60;73.00;;;;;;5056811;28;20053;-82
2021/08/08 07:24:35;;;;;;;2.30;2.10;;;22.70;72.40;;;;;;5036940;28;20021;-83
2021/08/08 07:27:01;;;;;;;2.30;2.10;;;22.80;72.20;;;;;;5054688;28;20029;-82
2021/08/08 07:29:26;;;;;;;1.88;1.75;;;22.80;71.90;;;;;;5036971;28;20036;-82
2021/08/08 07:31:53;;;;;;;1.92;1.80;;;22.90;71.80;;;;;;5054591;28;20056;-82
2021/08/08 07:34:19;;;;;;;2.10;1.90;;;23.00;71.50;;;;;;5035771;28;20021;-82
2021/08/08 07:36:44;;;;;;;1.95;1.85;;;23.10;71.60;;;;;;5037048;28;20064;-83
2021/08/08 07:39:10;;;;;;;2.25;2.05;;;23.20;71.40;;;;;;5036376;28;20084;-83
2021/08/08 07:41:36;;;;;;;1.73;1.63;;;23.30;70.80;;;;;;5036988;28;20043;-83
2021/08/08 07:44:02;;;;;;;2.13;1.80;;;23.40;70.50;;;;;;5036481;28;20025;-83
2021/08/08 07:46:27;;;;;;;1.77;1.67;;;23.50;70.40;;;;;;5053956;28;20112;-83
2021/08/08 07:48:53;;;;;;;1.55;1.45;;;23.60;70.10;;;;;;5036424;28;20033;-83
2021/08/08 07:51:19;;;;;;;1.58;1.48;;;23.70;70.20;;;;;;5054344;28;20416;-84
2021/08/08 07:53:44;;;;;;;2.13;1.90;;;23.80;69.90;;;;;;5054087;28;20029;-83
2021/08/08 07:56:10;;;;;;;1.70;1.60;;;23.90;69.40;;;;;;5036350;28;20028;-83
2021/08/08 07:58:36;;;;;;;2.20;2.00;;;24.10;69.10;;;;;;5036252;28;20036;-83
2021/08/08 08:01:02;;;;;;;2.50;1.90;;;24.10;68.10;;;;;;5054174;28;20028;-83
2021/08/08 08:03:31;;;;;;;2.17;1.98;;;24.10;68.00;;;;;;5053625;28;20025;-83
2021/08/08 08:05:57;;;;;;;2.10;1.90;;;24.20;68.40;;;;;;5054304;28;20029;-83
2021/08/08 08:08:23;;;;;;;2.20;2.00;;;24.40;69.00;;;;;;5053999;28;20032;-83
2021/08/08 08:10:49;;;;;;;2.10;1.90;;;24.70;69.60;;;;;;5036797;28;20108;-83
2021/08/08 08:13:15;;;;;;;2.17;1.98;;;24.90;69.40;;;;;;5054095;28;20072;-83
2021/08/08 08:15:40;;;;;;;2.38;2.10;;;25.20;68.70;;;;;;5054201;28;20479;-83
2021/08/08 08:18:06;;;;;;;4.85;4.05;;;25.40;67.50;;;;;;5056884;28;20093;-83
2021/08/08 08:20:32;;;;;;;4.80;3.10;;;25.70;68.50;;;;;;5070123;28;20040;-83
2021/08/08 08:22:58;;;;;;;7.55;6.15;;;26.00;68.00;;;;;;5070669;28;20094;-83
2021/08/08 08:25:24;;;;;;;4.93;4.28;;;26.40;68.20;;;;;;5056894;28;20083;-84
2021/08/08 08:27:51;;;;;;;3.00;2.72;;;26.80;67.50;;;;;;5036627;28;20040;-84
2021/08/08 08:30:17;;;;;;;2.97;2.50;;;27.20;66.60;;;;;;5036245;28;20120;-85
2021/08/08 08:32:43;;;;;;;3.08;2.35;;;27.50;65.30;;;;;;5035684;28;20029;-83
2021/08/08 08:35:09;;;;;;;2.55;2.22;;;27.80;65.00;;;;;;5053838;28;20024;-82
2021/08/08 08:37:35;;;;;;;2.08;1.88;;;28.10;64.10;;;;;;5053575;28;20526;-82
2021/08/08 08:40:03;;;;;;;1.88;1.77;;;28.40;63.40;;;;;;5053444;28;20112;-82
2021/08/08 08:42:30;;;;;;;1.65;1.52;;;28.70;62.20;;;;;;5053646;28;20033;-82
2021/08/08 08:44:56;;;;;;;1.70;1.60;;;28.90;62.00;;;;;;5035605;28;20036;-82
2021/08/08 08:47:22;;;;;;;2.60;2.30;;;29.20;61.20;;;;;;5038622;28;20112;-82
2021/08/08 08:49:54;;;;;;;2.75;1.95;;;29.30;59.80;;;;;;5039741;28;20035;-83
2021/08/08 08:52:26;;;;;;;2.17;1.98;;;29.60;59.30;;;;;;5040042;28;20047;-83
2021/08/08 08:54:56;;;;;;;2.63;1.88;;;29.70;57.60;;;;;;5039573;28;20017;-82
2021/08/08 08:57:22;;;;;;;1.48;1.38;;;29.90;57.10;;;;;;5039346;28;20420;-82
2021/08/08 08:59:49;;;;;;;1.50;1.25;;;30.00;57.60;;;;;;5039564;28;20059;-82
2021/08/08 09:02:14;;;;;;;1.20;1.20;;;30.20;57.40;;;;;;5039128;28;20479;-84
2021/08/08 09:04:40;;;;;;;1.80;1.70;;;30.40;57.50;;;;;;5039376;28;20059;-83
2021/08/08 09:07:06;;;;;;;1.73;1.60;;;30.60;56.20;;;;;;5056939;28;20082;-82
2021/08/08 09:09:34;;;;;;;2.08;1.80;;;30.80;55.30;;;;;;5057666;28;20036;-81
2021/08/08 09:12:00;;;;;;;1.73;1.63;;;30.90;54.80;;;;;;5040177;28;20021;-82
2021/08/08 09:14:26;;;;;;;1.88;1.73;;;31.00;54.30;;;;;;5056975;28;20400;-82
2021/08/08 09:16:56;;;;;;;1.73;1.63;;;31.20;54.30;;;;;;5039157;28;20074;-83
2021/08/08 09:19:30;;;;;;;2.78;1.67;;;31.50;53.60;;;;;;5039252;28;20037;-82
2021/08/08 09:21:57;;;;;;;1.73;1.63;;;31.70;53.80;;;;;;5039188;28;20032;-82
2021/08/08 09:24:27;;;;;;;1.75;1.65;;;31.90;53.10;;;;;;5056602;28;20418;-83
2021/08/08 09:27:19;;;;;;;1.73;1.63;;;32.10;52.60;;;;;;5038846;28;20029;-83
2021/08/08 09:29:48;;;;;;;1.70;1.60;;;32.30;47.10;;;;;;5034372;28;20190;-83
2021/08/08 09:32:14;;;;;;;2.30;2.10;;;32.30;51.80;;;;;;5056623;28;20478;-83
2021/08/08 09:34:51;;;;;;;2.10;1.90;;;32.40;51.50;;;;;;5056732;28;20031;-83
2021/08/08 09:37:22;;;;;;;2.20;2.00;;;32.60;49.90;;;;;;5039543;28;20031;-83
2021/08/08 09:39:57;;;;;;;2.08;1.63;;;32.70;50.30;;;;;;5056988;28;20033;-82
2021/08/08 09:42:31;;;;;;;3.35;2.08;;;32.70;47.80;;;;;;5056535;28;20035;-82
2021/08/08 09:45:07;;;;;;;1.77;1.67;;;32.80;49.20;;;;;;5039035;28;20029;-83
2021/08/08 09:47:47;;;;;;;1.45;1.35;;;32.80;48.60;;;;;;5057321;28;20025;-83
2021/08/08 09:50:18;;;;;;;1.70;1.60;;;32.70;46.30;;;;;;5056894;28;20032;-83
2021/08/08 09:52:59;;;;;;;1.67;1.30;;;32.70;48.70;;;;;;5038596;28;20379;-83
2021/08/08 09:55:34;;;;;;;1.83;1.50;;;32.80;44.80;;;;;;5057072;28;20118;-83
2021/08/08 09:58:05;;;;;;;1.50;1.40;;;32.90;47.70;;;;;;5056345;28;20025;-83
2021/08/08 10:00:35;;;;;;;1.83;1.73;;;32.90;47.60;;;;;;5038554;28;20037;-82
2021/08/08 10:03:02;;;;;;;1.73;1.60;;;32.90;47.20;;;;;;5056438;28;20067;-83
2021/08/08 10:05:29;;;;;;;1.30;1.20;;;32.90;46.90;;;;;;5038109;28;20478;-82
2021/08/08 10:07:55;;;;;;;1.60;1.30;;;32.90;46.50;;;;;;5055938;28;20024;-85
2021/08/08 10:10:22;;;;;;;1.40;1.30;;;32.90;47.00;;;;;;5056035;28;20032;-85
2021/08/08 10:13:05;;;;;;;1.42;1.13;;;33.00;47.00;;;;;;5055638;28;20045;-85
2021/08/08 10:15:33;;;;;;;1.38;1.20;;;33.20;45.20;;;;;;5056041;28;20490;-85
2021/08/08 10:18:01;;;;;;;1.23;1.13;;;33.20;46.80;;;;;;5056290;28;20112;-85
2021/08/08 10:20:37;;;;;;;1.60;1.00;;;33.30;46.60;;;;;;5037097;28;20080;-84
2021/08/08 10:23:03;;;;;;;1.15;1.00;;;33.40;43.80;;;;;;5037671;28;20025;-85
2021/08/08 10:25:29;;;;;;;0.82;0.77;;;33.40;46.10;;;;;;5055678;28;20104;-85
2021/08/08 10:27:57;;;;;;;0.80;0.80;;;33.60;45.70;;;;;;5037920;28;20024;-86
2021/08/08 10:30:24;;;;;;;1.65;1.05;;;33.80;45.70;;;;;;5037544;28;20036;-85
2021/08/08 10:32:50;;;;;;;1.48;1.13;;;34.00;45.70;;;;;;5037640;28;20116;-85
2021/08/08 10:35:17;;;;;;;0.90;0.77;;;34.10;45.30;;;;;;5040631;28;20086;-88
2021/08/08 10:37:45;;;;;;;1.52;0.95;;;34.20;44.80;;;;;;5037400;28;20025;-85
2021/08/08 10:40:12;;;;;;;0.80;0.80;;;34.30;44.70;;;;;;5038073;28;20360;-85
2021/08/08 10:42:46;;;;;;;1.05;0.95;;;34.40;44.50;;;;;;5037722;28;20387;-85
2021/08/08 10:45:41;;;;;;;0.70;0.70;;;34.40;42.90;;;;;;5055316;28;20478;-85
2021/08/08 10:48:09;;;;;;;1.38;1.20;;;34.50;42.10;;;;;;5034380;28;20483;-84
2021/08/08 10:50:47;;;;;;;1.50;1.10;;;34.60;44.50;;;;;;5055760;28;20040;-84
2021/08/08 10:53:27;;;;;;;1.30;1.20;;;34.80;44.40;;;;;;5055589;28;20025;-84
2021/08/08 10:56:07;;;;;;;1.30;1.05;;;35.00;41.90;;;;;;5037333;28;20383;-84
2021/08/08 10:58:39;;;;;;;1.10;0.90;;;35.30;40.30;;;;;;5055737;28;20025;-85
2021/08/08 11:01:18;;;;;;;0.68;0.68;;;35.30;42.70;;;;;;5036942;28;20026;-85
2021/08/08 11:04:00;;;;;;;2.03;0.90;;;35.40;41.90;;;;;;5054688;28;20479;-85
2021/08/08 11:06:33;;;;;;;1.67;1.10;;;35.30;40.60;;;;;;5036953;28;20028;-85
2021/08/08 11:09:00;;;;;;;0.90;0.70;;;35.30;42.60;;;;;;5036166;28;20127;-85
2021/08/08 11:11:37;;;;;;;1.08;1.02;;;35.50;42.80;;;;;;5037591;28;20051;-85
2021/08/08 11:14:17;;;;;;;0.90;0.90;;;35.60;42.10;;;;;;5036962;28;20041;-86
2021/08/08 11:17:01;;;;;;;1.10;1.00;;;35.70;40.70;;;;;;5055272;28;20077;-85
2021/08/08 11:19:45;;;;;;;1.30;1.20;;;35.70;40.30;;;;;;5054650;28;20063;-84
2021/08/08 11:22:19;;;;;;;0.82;0.82;;;35.70;40.80;;;;;;5054713;28;20040;-85
2021/08/08 11:25:06;;;;;;;1.13;1.08;;;35.70;40.90;;;;;;5036934;28;20025;-84
2021/08/08 11:27:36;;;;;;;1.58;1.10;;;35.90;40.30;;;;;;5036577;28;20021;-84
2021/08/08 11:30:06;;;;;;;1.00;0.90;;;35.70;41.90;;;;;;5037234;28;20108;-85
2021/08/08 11:32:32;;;;;;;1.95;1.00;;;35.90;41.90;;;;;;5036543;28;20033;-85
2021/08/08 11:35:07;;;;;;;1.48;1.15;;;35.90;41.60;;;;;;5054502;28;20075;-85
2021/08/08 11:37:39;;;;;;;1.67;1.35;;;36.00;41.60;;;;;;5036641;28;20032;-85
2021/08/08 11:40:22;;;;;;;1.33;1.20;;;36.00;41.70;;;;;;5054532;28;20033;-85
2021/08/08 11:42:59;;;;;;;1.10;1.10;;;36.20;41.10;;;;;;5054257;28;20482;-85
2021/08/08 11:45:48;;;;;;;1.75;1.10;;;36.20;41.20;;;;;;5036644;28;20032;-86
2021/08/08 11:48:19;;;;;;;2.38;1.27;;;36.40;40.20;;;;;;5055065;28;20021;-86
2021/08/08 11:51:00;;;;;;;1.35;1.23;;;36.40;40.90;;;;;;5054799;28;20102;-84
2021/08/08 11:53:33;;;;;;;2.33;1.25;;;36.50;39.20;;;;;;5054764;28;20021;-85
2021/08/08 11:56:30;;;;;;;1.95;1.25;;;36.60;40.70;;;;;;5037840;28;20353;-85
2021/08/08 11:58:58;;;;;;;1.38;1.25;;;36.60;39.10;;;;;;5042055;28;20487;-85
2021/08/08 12:01:29;;;;;;;1.42;1.00;;;36.80;40.80;;;;;;5059530;28;20095;-85
2021/08/08 12:04:06;;;;;;;2.97;1.55;;;36.80;40.60;;;;;;5039637;28;20056;-85
2021/08/08 12:06:32;;;;;;;1.55;1.42;;;36.90;37.30;;;;;;5036508;28;20112;-87
2021/08/08 12:08:58;;;;;;;2.17;1.50;;;36.70;40.00;;;;;;5036182;28;20127;-85
2021/08/08 12:11:26;;;;;;;1.45;1.35;;;36.70;40.10;;;;;;5036123;28;20025;-86
2021/08/08 12:14:06;;;;;;;1.15;1.10;;;36.80;40.00;;;;;;5054148;28;20048;-84
2021/08/08 12:16:37;;;;;;;1.63;1.30;;;36.80;38.20;;;;;;5054415;28;20028;-85
2021/08/08 12:19:04;;;;;;;1.60;1.27;;;36.90;39.60;;;;;;5035796;28;20036;-84
2021/08/08 12:21:38;;;;;;;1.02;1.00;;;36.90;39.50;;;;;;5053629;28;20374;-84
2021/08/08 12:24:08;;;;;;;2.03;1.83;;;37.10;38.80;;;;;;5054206;28;20463;-85
2021/08/08 12:26:37;;;;;;;1.80;1.60;;;37.20;38.50;;;;;;5036408;28;20087;-84
2021/08/08 12:29:05;;;;;;;2.78;1.30;;;37.20;38.90;;;;;;5053835;28;20118;-86
2021/08/08 12:31:40;;;;;;;1.45;1.30;;;37.30;39.00;;;;;;5035449;28;20025;-85
2021/08/08 12:34:16;;;;;;;1.50;1.40;;;37.40;37.80;;;;;;5053484;28;20040;-84
2021/08/08 12:36:43;;;;;;;1.63;1.40;;;37.40;38.40;;;;;;5054034;28;20044;-85
2021/08/08 12:39:10;;;;;;;1.40;1.13;;;37.40;38.40;;;;;;5053617;28;20033;-85
2021/08/08 12:41:41;;;;;;;1.30;1.20;;;37.40;38.30;;;;;;5053475;28;20453;-84
2021/08/08 12:44:10;;;;;;;1.23;1.13;;;37.50;37.90;;;;;;5035746;28;20060;-85
2021/08/08 12:46:41;;;;;;;1.50;1.40;;;37.60;38.20;;;;;;5053708;28;20024;-85
2021/08/08 12:49:11;;;;;;;1.77;1.05;;;37.70;37.60;;;;;;5036438;28;20037;-84
2021/08/08 12:51:40;;;;;;;1.30;1.20;;;37.80;37.70;;;;;;5035962;28;20036;-84
2021/08/08 12:54:08;;;;;;;2.05;0.98;;;38.00;37.80;;;;;;5053293;28;20025;-85